Time;durP1;ratioP1;P1;durP2;ratioP2;P2;SDS_P1;SDS_P2;PMS_P1;PMS_P2;Temp;Humidity;BMP_temperature;BMP_pressure;BME280_temperature;BME280_humidity;BME280_pressure;Samples;Min_cycle;Max_cycle;Signal;HPM_P1;HPM_P2
2023/06/29 00:02:18;;;;;;;36.58;22.58;;;;;;;19.79;96.56;101576.22;4976773;28;20522;-57
2023/06/29 00:04:43;;;;;;;36.00;21.48;;;;;;;19.80;96.11;101578.84;4976024;28;20050;-56
2023/06/29 00:07:09;;;;;;;36.00;21.60;;;;;;;19.78;96.47;101574.41;4975341;28;20042;-56
2023/06/29 00:09:34;;;;;;;39.60;21.65;;;;;;;19.80;96.73;101565.63;4973588;28;20043;-56
2023/06/29 00:11:59;;;;;;;35.10;21.13;;;;;;;19.81;96.67;101563.84;4976074;28;20042;-56
2023/06/29 00:14:25;;;;;;;30.75;20.67;;;;;;;19.78;96.19;101561.19;4976336;28;20061;-56
2023/06/29 00:16:50;;;;;;;33.80;21.90;;;;;;;19.74;96.21;101556.78;4974401;28;20038;-56
2023/06/29 00:19:16;;;;;;;36.40;21.77;;;;;;;19.71;96.75;101551.53;4973130;28;20406;-56
2023/06/29 00:21:42;;;;;;;35.92;23.13;;;;;;;19.57;97.12;101549.81;4976391;28;20042;-56
2023/06/29 00:24:10;;;;;;;38.25;22.88;;;;;;;19.44;98.04;101553.38;4973340;28;20026;-56
2023/06/29 00:26:36;;;;;;;35.78;22.33;;;;;;;19.31;98.17;101547.22;4976111;28;20034;-56
2023/06/29 00:29:05;;;;;;;36.35;21.98;;;;;;;19.23;100.00;101546.34;4974124;28;20026;-56
2023/06/29 00:31:30;;;;;;;;;;;;;;;19.28;97.07;101549.88;4973724;28;20034;-56
2023/06/29 00:33:56;;;;;;;36.75;21.60;;;;;;;19.29;100.00;101544.56;4972631;28;20416;-56
2023/06/29 00:36:21;;;;;;;39.58;23.77;;;;;;;19.34;100.00;101547.19;4976321;28;20418;-56
2023/06/29 00:38:46;;;;;;;37.97;23.52;;;;;;;19.34;100.00;101541.91;4976644;28;20034;-56
2023/06/29 00:41:12;;;;;;;41.35;23.13;;;;;;;19.33;100.00;101534.00;4976555;28;20035;-56
2023/06/29 00:43:37;;;;;;;36.22;21.00;;;;;;;19.36;100.00;101539.28;4975918;28;20524;-56
2023/06/29 00:46:07;;;;;;;34.90;21.23;;;;;;;19.39;100.00;101536.63;4973626;28;20105;-56
2023/06/29 00:48:35;;;;;;;32.30;21.35;;;;;;;19.44;99.69;101542.78;4974784;28;20030;-56
2023/06/29 00:51:00;;;;;;;37.78;21.92;;;;;;;19.47;99.69;101542.78;4972306;28;20030;-56
2023/06/29 00:53:26;;;;;;;36.35;21.88;;;;;;;19.45;99.84;101534.84;4956687;28;20486;-56
2023/06/29 00:55:51;;;;;;;37.17;22.30;;;;;;;19.41;98.99;101533.09;4975755;28;20074;-56
2023/06/29 00:58:17;;;;;;;35.33;20.52;;;;;;;19.46;98.45;101527.78;4975761;28;20383;-56
2023/06/29 01:00:42;;;;;;;33.47;21.10;;;;;;;19.50;98.49;101529.56;4974405;28;20030;-55
2023/06/29 01:03:09;;;;;;;34.72;21.33;;;;;;;19.50;98.04;101529.56;4974058;28;20033;-57
2023/06/29 01:05:34;;;;;;;39.17;22.42;;;;;;;19.49;97.74;101525.13;4974579;28;20026;-56
2023/06/29 01:08:16;;;;;;;35.08;21.88;;;;;;;19.41;98.60;101519.00;4974314;28;20041;-56
2023/06/29 01:10:44;;;;;;;38.25;21.80;;;;;;;19.42;99.01;101524.28;4973977;28;20027;-56
2023/06/29 01:13:10;;;;;;;39.28;20.98;;;;;;;19.44;98.40;101525.16;4952904;28;20035;-56
2023/06/29 01:15:38;;;;;;;39.28;23.17;;;;;;;19.45;97.85;101524.28;4972167;28;20027;-57
2023/06/29 01:18:04;;;;;;;39.63;21.98;;;;;;;19.44;98.09;101524.28;4974181;28;20062;-56
2023/06/29 01:20:31;;;;;;;39.28;23.92;;;;;;;19.45;97.42;101523.38;4974597;28;20516;-56
2023/06/29 01:23:10;;;;;;;36.20;22.25;;;;;;;19.47;97.49;101521.63;4974109;28;20738;-56
2023/06/29 01:25:36;;;;;;;40.50;24.05;;;;;;;19.47;97.11;101521.63;4973881;28;20121;-56
2023/06/29 01:28:09;;;;;;;42.28;23.75;;;;;;;19.45;97.43;101512.81;4973875;28;20116;-56
2023/06/29 01:30:39;;;;;;;40.40;23.02;;;;;;;19.46;97.37;101517.22;4974218;28;20143;-56
2023/06/29 01:33:07;;;;;;;37.50;22.27;;;;;;;19.42;97.55;101507.53;4973690;28;20509;-56
2023/06/29 01:35:32;;;;;;;35.03;21.23;;;;;;;19.46;97.64;101506.66;4974006;28;20092;-56
2023/06/29 01:38:01;;;;;;;36.08;22.20;;;;;;;19.43;97.55;101509.31;4974475;28;20490;-56
2023/06/29 01:40:29;;;;;;;37.63;22.17;;;;;;;19.42;97.34;101505.78;4973961;28;20034;-56
2023/06/29 01:42:56;;;;;;;37.42;22.40;;;;;;;19.47;97.25;101505.78;4973769;28;20031;-56
2023/06/29 01:45:22;;;;;;;38.60;22.17;;;;;;;19.47;97.11;101497.84;4975483;28;20030;-56
2023/06/29 01:47:48;;;;;;;37.28;22.15;;;;;;;19.51;97.26;101504.88;4973601;28;20597;-56
2023/06/29 01:50:16;;;;;;;39.90;23.30;;;;;;;19.52;96.55;101503.09;4971927;28;20028;-56
2023/06/29 01:52:42;;;;;;;40.07;22.30;;;;;;;19.49;96.86;101503.13;4971244;28;20037;-56
2023/06/29 01:55:09;;;;;;;37.30;22.75;;;;;;;19.45;96.71;101497.84;4970641;28;20067;-56
2023/06/29 01:57:34;;;;;;;39.28;22.05;;;;;;;19.44;97.03;101495.22;4973139;28;20065;-56
2023/06/29 01:59:59;;;;;;;38.75;21.80;;;;;;;19.45;97.05;101500.50;4971685;28;20394;-55
2023/06/29 02:02:25;;;;;;;37.40;22.23;;;;;;;19.46;97.63;101499.63;4971761;28;20501;-57
2023/06/29 02:04:50;;;;;;;36.35;21.98;;;;;;;19.48;96.96;101494.31;4973766;28;20023;-55
2023/06/29 02:07:15;;;;;;;37.75;21.38;;;;;;;19.48;97.24;101489.03;4974189;28;20030;-56
2023/06/29 02:09:41;;;;;;;36.42;21.50;;;;;;;19.47;97.53;101489.91;4973104;28;20113;-56
2023/06/29 02:12:07;;;;;;;39.70;22.88;;;;;;;19.46;97.23;101491.69;4971986;28;20086;-56
2023/06/29 02:14:33;;;;;;;35.35;21.85;;;;;;;19.45;97.33;101487.28;4969866;28;20030;-55
2023/06/29 02:16:58;;;;;;;36.78;21.90;;;;;;;19.45;97.27;101486.38;4971565;28;20546;-56
2023/06/29 02:19:23;;;;;;;37.83;21.90;;;;;;;19.40;97.59;101482.88;4972090;28;20034;-56
2023/06/29 02:21:48;;;;;;;37.80;22.17;;;;;;;19.39;97.70;101482.03;4971711;28;20058;-56
2023/06/29 02:24:14;;;;;;;38.03;22.70;;;;;;;19.35;97.41;101485.56;4972212;28;20035;-56
2023/06/29 02:26:39;;;;;;;39.97;22.30;;;;;;;19.37;97.52;101482.91;4972654;28;20026;-56
2023/06/29 02:29:04;;;;;;;37.42;22.42;;;;;;;19.37;97.55;101489.06;4972755;28;20085;-57
2023/06/29 02:31:29;;;;;;;41.63;23.05;;;;;;;19.39;97.33;101481.13;4971757;28;20038;-57
2023/06/29 02:33:55;;;;;;;38.05;22.90;;;;;;;19.38;97.46;101476.72;4970784;28;20042;-56
2023/06/29 02:36:21;;;;;;;38.08;22.27;;;;;;;19.39;97.33;101473.19;4973326;28;20026;-56
2023/06/29 02:38:46;;;;;;;40.20;23.45;;;;;;;19.41;97.33;101474.09;4973375;28;20038;-56
2023/06/29 02:41:12;;;;;;;38.42;22.88;;;;;;;19.40;97.14;101477.59;4973645;28;20037;-57
2023/06/29 02:43:37;;;;;;;41.70;24.73;;;;;;;19.33;97.33;101463.50;4972047;28;20109;-57
2023/06/29 02:46:02;;;;;;;41.15;23.65;;;;;;;19.34;96.95;101464.41;4970496;28;20525;-56
2023/06/29 02:48:28;;;;;;;36.20;21.70;;;;;;;19.33;94.13;101460.00;4970933;28;20038;-57
2023/06/29 02:50:53;;;;;;;45.63;24.23;;;;;;;19.33;96.29;101463.50;4970885;28;20074;-56
2023/06/29 02:53:18;;;;;;;44.13;24.15;;;;;;;19.31;96.54;101461.78;4971698;28;20042;-56
2023/06/29 02:55:43;;;;;;;42.60;24.67;;;;;;;19.32;96.42;101455.59;4971059;28;20027;-57
2023/06/29 02:58:09;;;;;;;43.28;24.35;;;;;;;19.31;96.44;101456.50;4972379;28;20082;-56
2023/06/29 03:00:34;;;;;;;42.92;23.83;;;;;;;19.31;96.09;101460.00;4969256;28;20033;-55
2023/06/29 03:02:59;;;;;;;44.58;25.17;;;;;;;19.31;96.03;101459.16;4970074;28;20494;-56
2023/06/29 03:05:25;;;;;;;45.38;25.50;;;;;;;19.30;96.03;101450.31;4972816;28;20030;-56
2023/06/29 03:07:50;;;;;;;45.67;25.00;;;;;;;19.28;96.26;101458.25;4972834;28;20379;-57
2023/06/29 03:10:15;;;;;;;46.10;25.75;;;;;;;19.27;95.59;101456.47;4973359;28;20074;-55
2023/06/29 03:12:41;;;;;;;42.50;24.48;;;;;;;19.26;95.84;101457.38;4973365;28;20026;-56
2023/06/29 03:15:07;;;;;;;45.75;25.25;;;;;;;19.22;96.18;101458.28;4970952;28;20676;-56
2023/06/29 03:17:32;;;;;;;44.38;25.05;;;;;;;19.25;96.82;101452.09;4971807;28;20038;-57
2023/06/29 03:19:58;;;;;;;43.53;24.83;;;;;;;19.25;95.93;101452.09;4973169;28;20521;-56
2023/06/29 03:22:25;;;;;;;45.17;25.73;;;;;;;19.24;96.44;101453.84;4976073;28;20473;-57
2023/06/29 03:24:50;;;;;;;44.08;23.77;;;;;;;19.25;96.72;101452.97;4975247;28;20143;-57
2023/06/29 03:27:15;;;;;;;44.70;25.05;;;;;;;19.25;96.56;101447.69;4976218;28;20037;-56
2023/06/29 03:29:41;;;;;;;47.25;25.10;;;;;;;19.25;96.22;101447.69;4976201;28;20054;-56
2023/06/29 03:32:06;;;;;;;49.05;25.75;;;;;;;19.24;96.14;101438.00;4975315;28;20022;-56
2023/06/29 03:34:32;;;;;;;50.38;25.70;;;;;;;19.23;96.47;101449.47;4976808;28;20038;-56
2023/06/29 03:36:57;;;;;;;50.05;27.10;;;;;;;19.23;96.58;101441.53;4977720;28;20030;-56
2023/06/29 03:39:22;;;;;;;48.40;25.38;;;;;;;19.23;96.16;101443.28;4975547;28;20029;-57
2023/06/29 03:41:47;;;;;;;57.55;27.30;;;;;;;19.21;96.56;101440.66;4978177;28;20058;-57
2023/06/29 03:44:13;;;;;;;45.20;25.65;;;;;;;19.22;95.61;101441.53;4977228;28;20049;-57
2023/06/29 03:46:38;;;;;;;50.60;28.15;;;;;;;19.22;96.64;101441.53;4975593;28;20577;-56
2023/06/29 03:49:04;;;;;;;55.20;28.92;;;;;;;19.20;97.06;101444.16;4976645;28;20190;-55
2023/06/29 03:51:29;;;;;;;53.63;27.13;;;;;;;19.22;96.68;101442.41;4973436;28;20589;-56
2023/06/29 03:53:54;;;;;;;57.42;29.00;;;;;;;19.22;96.64;101441.53;4974912;28;20057;-57
2023/06/29 03:56:19;;;;;;;53.35;27.38;;;;;;;19.23;97.02;101444.19;4958112;28;20438;-56
2023/06/29 03:58:45;;;;;;;52.20;28.02;;;;;;;19.25;96.49;101437.13;4958719;28;20035;-56
2023/06/29 04:01:10;;;;;;;47.30;26.02;;;;;;;19.23;95.12;101441.53;4974455;28;20382;-57
2023/06/29 04:03:35;;;;;;;57.17;29.10;;;;;;;19.23;96.38;101433.63;4974430;28;20041;-56
2023/06/29 04:06:00;;;;;;;52.13;27.52;;;;;;;19.22;96.52;101426.56;4974168;28;20423;-57
2023/06/29 04:08:26;;;;;;;52.05;27.67;;;;;;;19.18;97.12;101424.81;4974566;28;20125;-56
2023/06/29 04:10:52;;;;;;;51.10;28.05;;;;;;;19.19;96.74;101421.31;4974531;28;20030;-56
2023/06/29 04:13:17;;;;;;;51.42;27.52;;;;;;;19.19;96.00;101429.22;4975714;28;20406;-57
2023/06/29 04:15:43;;;;;;;53.05;28.90;;;;;;;19.23;97.20;101419.50;4974107;28;20018;-56
2023/06/29 04:18:08;;;;;;;51.40;28.48;;;;;;;19.24;96.85;101423.91;4975115;28;20030;-56
2023/06/29 04:20:33;;;;;;;57.70;26.95;;;;;;;19.23;97.21;101417.78;4972429;28;20112;-57
2023/06/29 04:22:59;;;;;;;55.45;28.35;;;;;;;19.21;97.46;101414.22;4974618;28;20105;-56
2023/06/29 04:25:24;;;;;;;52.25;25.88;;;;;;;19.22;95.71;101410.72;4974430;28;20505;-56
2023/06/29 04:27:49;;;;;;;49.03;27.42;;;;;;;19.26;96.78;101417.75;4974518;28;20271;-57
2023/06/29 04:30:17;;;;;;;51.05;26.73;;;;;;;19.26;96.91;101422.13;4973277;28;20509;-56
2023/06/29 04:32:44;;;;;;;55.13;27.77;;;;;;;19.28;97.57;101423.03;4973470;28;20097;-56
2023/06/29 04:35:09;;;;;;;55.63;27.50;;;;;;;19.28;96.66;101412.47;4974347;28;20150;-57
2023/06/29 04:37:40;;;;;;;57.17;28.17;;;;;;;19.28;97.40;101417.75;4974128;28;20031;-55
2023/06/29 04:40:09;;;;;;;56.13;27.23;;;;;;;19.28;97.08;101420.38;4974556;28;20031;-56
2023/06/29 04:42:40;;;;;;;51.05;27.48;;;;;;;19.31;97.03;101416.88;4957073;28;20038;-57
2023/06/29 04:45:06;;;;;;;58.75;28.40;;;;;;;19.34;97.30;101411.56;4971265;28;20027;-56
2023/06/29 04:47:32;;;;;;;63.30;27.38;;;;;;;19.35;96.62;101414.19;4974326;28;20038;-57
2023/06/29 04:49:57;;;;;;;51.97;27.52;;;;;;;19.35;97.06;101405.38;4973845;28;20501;-57
2023/06/29 04:52:22;;;;;;;57.20;28.90;;;;;;;19.36;97.28;101413.28;4973417;28;20114;-56
2023/06/29 04:54:48;;;;;;;56.53;27.98;;;;;;;19.37;96.04;101404.50;4974604;28;20410;-56
2023/06/29 04:57:13;;;;;;;54.83;28.75;;;;;;;19.39;97.35;101402.75;4973264;28;20035;-56
2023/06/29 04:59:38;;;;;;;51.85;27.25;;;;;;;19.37;97.20;101409.78;4971386;28;20517;-57
2023/06/29 05:02:04;;;;;;;57.35;28.23;;;;;;;19.36;97.67;101405.38;4972079;28;20023;-56
2023/06/29 05:04:30;;;;;;;54.33;27.27;;;;;;;19.38;96.08;101408.00;4969815;28;20114;-56
2023/06/29 05:06:55;;;;;;;55.03;26.92;;;;;;;19.38;96.98;101410.63;4975656;28;20072;-56
2023/06/29 05:09:20;;;;;;;54.22;27.40;;;;;;;19.38;96.77;101411.53;4972989;28;20031;-57
2023/06/29 05:11:46;;;;;;;52.75;27.20;;;;;;;19.39;96.97;101412.41;4974676;28;20129;-57
2023/06/29 05:14:11;;;;;;;50.88;26.88;;;;;;;19.41;97.30;101405.38;4974777;28;20042;-56
2023/06/29 05:16:36;;;;;;;53.97;27.75;;;;;;;19.44;97.28;101408.00;4972679;28;20038;-57
2023/06/29 05:19:02;;;;;;;50.72;26.17;;;;;;;19.43;95.50;101414.16;4974255;28;20502;-56
2023/06/29 05:21:28;;;;;;;58.25;27.98;;;;;;;19.45;95.92;101407.09;4975483;28;20026;-56
2023/06/29 05:23:54;;;;;;;61.17;27.60;;;;;;;19.47;96.13;101407.97;4974938;28;20545;-57
2023/06/29 05:26:19;;;;;;;49.83;27.08;;;;;;;19.48;95.42;101409.75;4973404;28;20022;-57
2023/06/29 05:28:44;;;;;;;52.70;27.33;;;;;;;19.54;95.41;101400.91;4976454;28;20022;-57
2023/06/29 05:31:10;;;;;;;54.55;28.77;;;;;;;19.48;95.65;101400.91;4975384;28;20053;-56
2023/06/29 05:33:35;;;;;;;59.10;29.67;;;;;;;19.47;96.48;101402.69;4975215;28;20085;-56
2023/06/29 05:36:00;;;;;;;54.17;27.02;;;;;;;19.47;94.99;101405.34;4975036;28;20403;-57
2023/06/29 05:38:29;;;;;;;54.10;29.67;;;;;;;19.48;95.40;101399.19;4974265;28;20121;-57
2023/06/29 05:40:54;;;;;;;57.08;27.90;;;;;;;19.51;94.08;101403.53;4974393;28;20563;-57
2023/06/29 05:43:21;;;;;;;54.72;27.40;;;;;;;19.53;95.03;101402.66;4975523;28;20038;-56
2023/06/29 05:45:46;;;;;;;49.90;26.38;;;;;;;19.52;94.34;101403.53;4972869;28;20033;-56
2023/06/29 05:48:12;;;;;;;60.28;29.20;;;;;;;19.54;95.33;101392.97;4973433;28;20030;-57
2023/06/29 05:50:37;;;;;;;58.97;28.67;;;;;;;19.55;95.99;101400.91;4972683;28;20110;-57
2023/06/29 05:53:04;;;;;;;51.58;26.15;;;;;;;19.60;93.37;101400.88;4973047;28;20494;-57
2023/06/29 05:55:29;;;;;;;59.63;29.35;;;;;;;19.60;95.24;101401.75;4971179;28;20379;-55
2023/06/29 05:57:54;;;;;;;56.92;27.90;;;;;;;19.59;93.66;101389.41;4974144;28;20058;-56
2023/06/29 06:00:20;;;;;;;60.22;28.90;;;;;;;19.63;93.38;101396.44;4973870;28;20122;-57
2023/06/29 06:02:45;;;;;;;55.67;27.83;;;;;;;19.64;93.39;101392.06;4972329;28;20845;-57
2023/06/29 06:05:11;;;;;;;55.35;26.73;;;;;;;19.67;92.58;101383.19;4973541;28;20030;-57
2023/06/29 06:07:36;;;;;;;53.80;26.60;;;;;;;19.68;92.65;101387.59;4973095;28;20042;-57
2023/06/29 06:10:03;;;;;;;57.10;27.58;;;;;;;19.70;92.42;101393.78;4975073;28;20025;-56
2023/06/29 06:12:28;;;;;;;59.30;26.80;;;;;;;19.73;91.52;101391.13;4974059;28;20018;-57
2023/06/29 06:14:54;;;;;;;53.22;26.10;;;;;;;19.75;89.71;101391.97;4973049;28;20058;-56
2023/06/29 06:17:19;;;;;;;49.35;25.00;;;;;;;19.77;90.20;101395.50;4974654;28;20030;-57
2023/06/29 06:19:44;;;;;;;54.38;28.38;;;;;;;19.80;90.02;101392.88;4974430;28;20069;-57
2023/06/29 06:22:10;;;;;;;45.45;23.52;;;;;;;19.86;87.97;101390.19;4973114;28;20117;-56
2023/06/29 06:24:36;;;;;;;44.35;23.23;;;;;;;19.89;87.79;101397.22;4954429;28;20030;-56
2023/06/29 06:27:01;;;;;;;42.30;22.05;;;;;;;19.92;86.44;101397.19;4974206;28;20026;-57
2023/06/29 06:29:27;;;;;;;45.78;23.40;;;;;;;19.97;88.43;101396.28;4972148;28;20030;-57
2023/06/29 06:31:53;;;;;;;46.67;23.27;;;;;;;19.98;87.95;101395.38;4975268;28;20034;-57
2023/06/29 06:34:18;;;;;;;45.45;23.23;;;;;;;20.03;88.56;101394.47;4973021;28;20030;-57
2023/06/29 06:36:45;;;;;;;41.72;22.17;;;;;;;20.10;86.72;101393.53;4971777;28;20085;-57
2023/06/29 06:39:11;;;;;;;46.53;23.02;;;;;;;20.12;87.30;101391.78;4972740;28;20058;-56
2023/06/29 06:41:36;;;;;;;43.88;21.50;;;;;;;20.17;87.01;101392.59;4973754;28;20065;-57
2023/06/29 06:44:01;;;;;;;41.80;21.17;;;;;;;20.22;86.43;101393.47;4973168;28;20482;-57
2023/06/29 06:46:27;;;;;;;42.58;20.42;;;;;;;20.26;85.47;101395.19;4972913;28;20054;-57
2023/06/29 06:48:52;;;;;;;41.58;20.70;;;;;;;20.30;85.16;101390.75;4972757;28;20971;-57
2023/06/29 06:51:17;;;;;;;41.00;20.45;;;;;;;20.35;84.64;101394.25;4972107;28;20026;-57
2023/06/29 06:53:43;;;;;;;39.58;19.60;;;;;;;20.40;83.52;101394.22;4970561;28;20121;-56
2023/06/29 06:56:08;;;;;;;39.13;19.42;;;;;;;20.39;84.39;101390.69;4971522;28;20485;-57
2023/06/29 06:58:34;;;;;;;37.05;19.88;;;;;;;20.43;83.35;101388.88;4971139;28;20038;-57
2023/06/29 07:00:59;;;;;;;37.72;19.83;;;;;;;20.51;83.59;101392.34;4968899;28;20035;-57
2023/06/29 07:03:25;;;;;;;38.63;19.65;;;;;;;20.59;83.77;101387.84;4970501;28;20137;-57
2023/06/29 07:05:53;;;;;;;39.55;19.65;;;;;;;20.66;82.72;101389.56;4951658;28;20406;-57
2023/06/29 07:08:19;;;;;;;38.80;20.52;;;;;;;20.80;80.86;101393.88;4972540;28;20445;-57
2023/06/29 07:10:44;;;;;;;38.17;19.73;;;;;;;20.90;80.66;101390.25;4971391;28;20502;-57
2023/06/29 07:13:09;;;;;;;39.33;20.77;;;;;;;21.00;78.85;101385.69;4972744;28;20478;-57
2023/06/29 07:15:34;;;;;;;40.15;20.55;;;;;;;21.07;78.12;101383.88;4972812;28;20045;-57
2023/06/29 07:18:00;;;;;;;39.57;19.80;;;;;;;21.13;81.52;101381.13;4973982;28;20482;-57
2023/06/29 07:20:25;;;;;;;38.65;20.80;;;;;;;21.21;80.44;101387.22;4972874;28;20278;-57
2023/06/29 07:22:50;;;;;;;44.97;21.05;;;;;;;21.31;77.31;101391.53;4968723;28;20054;-57
2023/06/29 07:25:16;;;;;;;39.80;20.50;;;;;;;21.33;76.97;101389.75;4970731;28;20033;-58
2023/06/29 07:27:42;;;;;;;40.50;20.23;;;;;;;21.43;75.25;101393.13;4970027;28;20046;-57
2023/06/29 07:30:08;;;;;;;43.40;20.98;;;;;;;21.53;74.20;101393.94;4970789;28;20029;-57
2023/06/29 07:32:34;;;;;;;38.42;20.67;;;;;;;21.58;74.96;101380.59;4970747;28;20117;-57
2023/06/29 07:34:59;;;;;;;42.20;20.98;;;;;;;21.59;74.63;101385.88;4972626;28;20173;-57
2023/06/29 07:37:24;;;;;;;39.58;20.77;;;;;;;21.65;74.32;101385.84;4969137;28;20122;-57
2023/06/29 07:39:49;;;;;;;40.78;20.90;;;;;;;21.72;73.63;101378.63;4970349;28;20034;-57
2023/06/29 07:42:15;;;;;;;47.33;20.98;;;;;;;21.79;72.62;101387.41;4970382;28;20035;-57
2023/06/29 07:44:40;;;;;;;44.50;21.15;;;;;;;21.79;72.62;101382.09;4969906;28;20045;-57
2023/06/29 07:47:06;;;;;;;42.33;21.90;;;;;;;21.71;72.70;101377.78;4973546;28;20106;-57
2023/06/29 07:49:31;;;;;;;40.17;20.70;;;;;;;21.72;72.34;101376.00;4972737;28;20031;-57
2023/06/29 07:51:57;;;;;;;37.78;21.05;;;;;;;21.75;74.63;101380.38;4966948;28;20049;-57
2023/06/29 07:56:58;;;;;;;38.30;20.48;;;;;;;22.02;72.32;101371.13;4984542;23;20112;-56
2023/06/29 08:01:53;;;;;;;41.30;21.15;;;;;;;22.22;69.76;101377.00;5268377;23;21061;-57
2023/06/29 08:04:18;;;;;;;37.78;19.83;;;;;;;22.23;69.84;101370.78;4968890;28;20035;-57
2023/06/29 08:06:43;;;;;;;36.70;19.75;;;;;;;22.20;67.96;101372.59;4970009;28;20101;-57
2023/06/29 08:09:11;;;;;;;38.65;20.83;;;;;;;22.14;68.66;101372.72;4975561;28;20186;-57
2023/06/29 08:11:36;;;;;;;37.45;20.20;;;;;;;22.13;68.32;101373.59;4978096;28;20085;-57
2023/06/29 08:14:01;;;;;;;39.35;18.92;;;;;;;22.11;69.09;101367.47;4977754;28;20489;-57
2023/06/29 08:16:27;;;;;;;39.75;20.95;;;;;;;22.04;69.04;101364.00;4978088;28;20027;-57
2023/06/29 08:18:52;;;;;;;36.35;19.00;;;;;;;22.09;70.25;101361.28;4977862;28;20209;-57
2023/06/29 08:21:17;;;;;;;39.38;21.20;;;;;;;22.08;69.68;101365.72;4975395;28;20079;-57
2023/06/29 08:23:43;;;;;;;35.97;20.25;;;;;;;22.12;70.92;101359.47;4977614;28;20154;-57
2023/06/29 08:26:08;;;;;;;36.97;19.75;;;;;;;22.14;69.42;101356.78;4975619;28;20364;-57
2023/06/29 08:28:34;;;;;;;40.03;20.00;;;;;;;22.17;69.99;101364.69;4976747;28;20041;-57
2023/06/29 08:30:59;;;;;;;36.88;19.83;;;;;;;22.26;69.33;101371.63;4977139;28;20073;-58
2023/06/29 08:33:24;;;;;;;36.70;19.38;;;;;;;22.35;69.26;101377.72;4977251;28;20050;-58
2023/06/29 08:35:51;;;;;;;37.08;20.52;;;;;;;22.36;69.35;101368.84;4977189;28;20038;-58
2023/06/29 08:38:16;;;;;;;37.75;21.13;;;;;;;22.34;68.34;101370.63;4976582;28;20019;-57
2023/06/29 08:40:46;;;;;;;40.05;19.45;;;;;;;22.31;69.23;101370.66;4960431;28;20186;-57
2023/06/29 08:43:11;;;;;;;38.20;20.85;;;;;;;22.28;72.11;101369.84;4976657;28;20105;-58
2023/06/29 08:45:37;;;;;;;39.63;20.92;;;;;;;22.30;69.51;101362.72;4976168;28;20585;-58
2023/06/29 08:48:03;;;;;;;39.42;19.75;;;;;;;22.32;70.36;101366.22;4975846;28;20039;-58
2023/06/29 08:50:30;;;;;;;37.50;20.30;;;;;;;22.45;70.57;101364.25;4976504;28;20034;-57
2023/06/29 08:52:56;;;;;;;40.45;20.83;;;;;;;22.56;67.85;101365.84;4976337;28;20014;-57
2023/06/29 08:55:23;;;;;;;36.92;21.13;;;;;;;22.68;67.94;101367.41;4975795;28;20061;-57
2023/06/29 08:57:48;;;;;;;41.08;21.65;;;;;;;22.74;68.99;101359.31;4974877;28;20046;-57
2023/06/29 09:00:15;;;;;;;36.50;20.35;;;;;;;22.81;66.79;101361.84;4976952;28;20034;-57
2023/06/29 09:02:41;;;;;;;41.83;22.13;;;;;;;22.93;67.03;101356.28;4977176;28;20058;-58
2023/06/29 09:05:07;;;;;;;40.40;21.55;;;;;;;22.98;69.63;101351.75;4977215;28;20102;-57
2023/06/29 09:07:33;;;;;;;39.50;20.25;;;;;;;23.14;65.56;101349.69;4973991;28;20043;-58
2023/06/29 09:09:59;;;;;;;38.33;20.30;;;;;;;23.23;66.28;101351.28;4975440;28;20030;-58
2023/06/29 09:12:27;;;;;;;35.35;19.15;;;;;;;23.29;63.84;101353.81;4976044;28;20058;-58
2023/06/29 09:14:57;;;;;;;35.40;19.33;;;;;;;23.31;63.96;101348.47;4976253;28;20142;-58
2023/06/29 09:17:22;;;;;;;34.85;18.95;;;;;;;23.27;66.00;101350.31;4970931;28;20027;-58
2023/06/29 09:19:55;;;;;;;37.50;21.08;;;;;;;23.22;64.19;101352.22;4987576;28;20022;-57
2023/06/29 09:22:21;;;;;;;37.53;19.60;;;;;;;23.18;63.67;101358.50;4996381;28;20497;-57
2023/06/29 09:24:54;;;;;;;35.55;20.98;;;;;;;23.11;63.44;101352.41;4996593;28;20030;-58
2023/06/29 09:27:20;;;;;;;36.75;20.48;;;;;;;22.97;64.68;101352.69;4995700;28;20026;-58
2023/06/29 09:29:53;;;;;;;34.53;19.73;;;;;;;22.95;65.46;101350.94;4995059;28;20060;-58
2023/06/29 09:32:18;;;;;;;32.60;18.98;;;;;;;22.95;66.51;101351.81;4995498;28;20033;-58
2023/06/29 09:34:48;;;;;;;37.53;19.95;;;;;;;23.00;66.17;101354.38;4995203;28;20500;-57
2023/06/29 09:37:16;;;;;;;34.40;19.70;;;;;;;23.02;66.66;101353.44;4994980;28;20053;-57
2023/06/29 09:39:58;;;;;;;35.30;19.67;;;;;;;23.07;64.00;101356.91;4993794;28;20243;-57
2023/06/29 09:42:24;;;;;;;35.63;19.48;;;;;;;23.01;65.56;101354.34;4996078;28;20031;-58
2023/06/29 09:44:50;;;;;;;35.38;20.00;;;;;;;22.96;65.37;101344.75;4996087;28;20029;-58
2023/06/29 09:47:18;;;;;;;37.80;21.15;;;;;;;22.98;64.94;101346.44;4996453;28;20034;-58
2023/06/29 09:49:50;;;;;;;33.97;19.73;;;;;;;22.99;64.90;101353.50;4993503;28;20072;-58
2023/06/29 09:52:17;;;;;;;36.80;20.45;;;;;;;23.07;66.07;101356.91;4995318;28;20030;-57
2023/06/29 09:54:43;;;;;;;36.25;20.60;;;;;;;23.02;64.98;101353.44;4995948;28;20021;-57
2023/06/29 09:57:12;;;;;;;36.55;21.15;;;;;;;22.99;64.88;101358.81;4994874;28;20031;-58
2023/06/29 09:59:41;;;;;;;33.08;18.55;;;;;;;23.04;63.89;101351.66;4993936;28;20061;-58
2023/06/29 10:02:09;;;;;;;;;;;;;;;23.06;65.34;101349.81;4994822;28;20088;-58
2023/06/29 10:04:35;;;;;;;36.45;20.10;;;;;;;23.01;64.61;101362.31;4995314;28;19964;-57
2023/06/29 10:07:08;;;;;;;38.90;21.10;;;;;;;22.98;64.16;101357.06;5108639;23;20054;-96
2023/06/29 10:09:42;;;;;;;35.95;19.88;;;;;;;23.07;64.43;101361.31;4980205;28;20030;-96
2023/06/29 10:12:10;;;;;;;35.13;20.05;;;;;;;23.13;65.13;101358.59;4975911;28;20018;-96
2023/06/29 10:14:37;;;;;;;40.28;21.92;;;;;;;23.11;63.39;101351.53;5019237;23;20417;-58
2023/06/29 10:17:07;;;;;;;36.38;20.40;;;;;;;23.08;62.77;101349.78;4988431;28;20112;-58
2023/06/29 10:19:36;;;;;;;41.70;21.02;;;;;;;23.09;61.33;101348.88;4992814;28;20440;-58
2023/06/29 10:22:14;;;;;;;35.15;20.33;;;;;;;22.99;64.63;101353.50;4989117;28;20841;-58
2023/06/29 10:24:51;;;;;;;38.47;21.52;;;;;;;23.02;64.34;101358.75;4994810;28;20026;-58
2023/06/29 10:27:18;;;;;;;37.30;21.70;;;;;;;23.05;64.49;101356.03;4990515;28;20420;-58
2023/06/29 10:29:45;;;;;;;38.72;21.75;;;;;;;23.05;64.26;101347.19;4988396;28;20040;-57
2023/06/29 10:32:28;;;;;;;38.33;21.55;;;;;;;23.02;64.28;101355.22;4991947;28;20072;-57
2023/06/29 10:35:12;;;;;;;38.60;21.40;;;;;;;22.98;64.76;101346.44;4986846;28;20041;-57
2023/06/29 10:37:50;;;;;;;40.10;22.40;;;;;;;22.88;65.63;101350.19;4995502;28;20452;-57
2023/06/29 10:40:20;;;;;;;39.22;22.42;;;;;;;22.88;65.07;101345.75;4994006;28;20080;-57
2023/06/29 10:42:45;;;;;;;41.15;22.73;;;;;;;22.85;65.49;101345.78;4991827;28;20045;-56
2023/06/29 10:45:20;;;;;;;40.63;22.57;;;;;;;22.95;64.80;101357.13;4992686;28;20030;-57
2023/06/29 10:47:59;;;;;;;41.38;23.42;;;;;;;22.95;63.72;101357.13;4993317;28;20053;-57
2023/06/29 10:50:31;;;;;;;39.50;22.23;;;;;;;22.99;63.15;101347.31;4994940;28;20026;-57
2023/06/29 10:53:01;;;;;;;36.78;21.75;;;;;;;23.01;62.57;101350.81;4991442;28;20033;-57
2023/06/29 10:55:38;;;;;;;38.33;22.33;;;;;;;23.03;62.49;101349.88;4973737;28;20460;-57
2023/06/29 10:58:11;;;;;;;38.83;22.75;;;;;;;23.08;61.83;101352.44;4990132;28;20509;-57
2023/06/29 11:00:37;;;;;;;39.85;21.83;;;;;;;22.90;63.69;101348.38;4989224;28;20122;-57
2023/06/29 11:03:03;;;;;;;38.58;21.00;;;;;;;22.89;63.20;101352.81;4991273;28;20109;-57
2023/06/29 11:05:28;;;;;;;37.97;21.67;;;;;;;22.94;64.00;101344.75;4983089;28;20034;-57
2023/06/29 11:07:54;;;;;;;41.17;22.10;;;;;;;22.91;63.94;101350.13;5036992;23;20998;-96
2023/06/29 11:10:21;;;;;;;38.88;21.45;;;;;;;22.90;65.46;101346.59;4978426;28;20029;-96
2023/06/29 11:12:50;;;;;;;36.17;21.02;;;;;;;22.89;64.89;101341.31;4981298;28;20022;-96